KBKD/BKD METAR and TAF weather

Enter ICAO airport designator
Station Type Date Time Source
KBKD METAR 2021/08/01 16:55 UTC NOAA

KBKD 011655Z AUTO 02006KT 10SM CLR 30/22 A3010 RMK AO2 T03040215


Station Type Date Time Source
KBKD Decoded METAR 2021/08/01 16:55 UTC NOAA

Station name not available
Aug 01, 2021 - 12:55 PM EDT / 2021.08.01 1655 UTC
Wind: from the NNE (020 degrees) at 7 MPH (6 KT):0
Visibility: 10 mile(s):0
Sky conditions: clear
Temperature: 86.7 F (30.4 C)
Heat index: 92.1 F (33.4 C):1
Dew Point: 70.7 F (21.5 C)
Relative Humidity: 59%
Pressure (altimeter): 30.1 in. Hg (1019 hPa)
ob: KBKD 011655Z AUTO 02006KT 10SM CLR 30/22 A3010 RMK AO2 T03040215
cycle: 17

Station Type Date Time Source
KBKD TAF UTC NOAA

Error!

Example: see airport list